Time;durP1;ratioP1;P1;durP2;ratioP2;P2;SDS_P1;SDS_P2;PMS_P1;PMS_P2;Temp;Humidity;BMP_temperature;BMP_pressure;BME280_temperature;BME280_humidity;BME280_pressure;Samples;Min_cycle;Max_cycle;Signal;HPM_P1;HPM_P2
2022/08/12 00:45:18;;;;;;;6.22;3.05;;;21.20;99.90;;;;;;5062086;28;20235;-79
2022/08/12 00:48:08;;;;;;;5.20;2.97;;;21.20;99.90;;;;;;5049356;28;20224;-79
2022/08/12 00:51:00;;;;;;;6.28;3.50;;;21.20;99.90;;;;;;5047509;28;20790;-79
2022/08/12 00:53:49;;;;;;;4.40;2.80;;;21.10;99.90;;;;;;5046737;28;20227;-79
2022/08/12 00:56:39;;;;;;;7.13;2.70;;;21.00;99.90;;;;;;5045559;28;20277;-79
2022/08/12 00:59:28;;;;;;;3.40;2.90;;;21.10;99.90;;;;;;5061881;28;20224;-78
2022/08/12 01:02:24;;;;;;;3.42;2.67;;;21.10;99.90;;;;;;5057655;28;20597;-78
2022/08/12 01:11:31;;;;;;;4.55;2.90;;;20.80;99.90;;;;;;5059164;28;20243;-79
2022/08/12 01:14:23;;;;;;;9.13;3.22;;;21.00;99.90;;;;;;5061119;28;20273;-79
2022/08/12 01:17:13;;;;;;;5.10;2.85;;;21.00;99.90;;;;;;5059777;28;20216;-79
2022/08/12 01:20:06;;;;;;;6.82;2.70;;;20.90;99.90;;;;;;5061279;28;20342;-78
2022/08/12 01:23:15;;;;;;;5.38;2.60;;;20.90;99.90;;;;;;5059940;28;20675;-79
2022/08/12 01:26:07;;;;;;;7.45;2.70;;;20.90;99.90;;;;;;5058305;28;20220;-78
2022/08/12 01:28:58;;;;;;;4.97;2.58;;;20.80;99.90;;;;;;5061957;28;20236;-78
2022/08/12 01:31:49;;;;;;;4.63;2.88;;;20.80;99.90;;;;;;5047287;28;20228;-78
2022/08/12 01:34:41;;;;;;;5.10;2.78;;;20.90;99.90;;;;;;5062877;28;20216;-79
2022/08/12 01:37:31;;;;;;;5.28;2.70;;;20.90;99.90;;;;;;5056393;28;20768;-78
2022/08/12 01:40:27;;;;;;;8.90;3.05;;;20.90;99.90;;;;;;5062007;28;20589;-79
2022/08/12 01:43:26;;;;;;;5.78;3.05;;;20.80;99.90;;;;;;5041136;28;20700;-78
2022/08/12 01:46:25;;;;;;;3.40;2.60;;;20.70;99.90;;;;;;5044243;28;20588;-78
2022/08/12 01:49:31;;;;;;;3.83;2.70;;;20.80;99.90;;;;;;5030820;28;20233;-79
2022/08/12 01:52:28;;;;;;;4.97;2.67;;;20.70;99.90;;;;;;5019654;28;20229;-80
2022/08/12 01:55:20;;;;;;;7.43;2.67;;;20.70;99.90;;;;;;5023619;28;20626;-79
2022/08/12 01:58:22;;;;;;;4.43;2.80;;;20.60;99.90;;;;;;5020748;28;20326;-79
2022/08/12 02:01:14;;;;;;;3.50;2.65;;;20.70;99.90;;;;;;5018317;28;20595;-80
2022/08/12 02:14:27;;;;;;;3.80;2.33;;;20.60;99.90;;;;;;5021906;28;20229;-77
2022/08/12 02:17:55;;;;;;;4.00;2.75;;;20.40;99.90;;;;;;5035938;28;20585;-79
2022/08/12 02:20:52;;;;;;;5.32;2.78;;;20.40;99.90;;;;;;5018775;28;20233;-78
2022/08/12 02:23:42;;;;;;;6.28;2.83;;;20.50;99.90;;;;;;5020489;28;20271;-80
2022/08/12 02:26:36;;;;;;;3.78;2.72;;;20.50;99.90;;;;;;5029849;28;20297;-80
2022/08/12 02:29:25;;;;;;;4.32;2.60;;;20.40;99.90;;;;;;5018843;28;20228;-81
2022/08/12 02:32:15;;;;;;;4.45;2.53;;;20.40;99.90;;;;;;5022971;28;20271;-81
2022/08/12 02:35:07;;;;;;;6.55;2.75;;;20.40;99.90;;;;;;5020793;28;20225;-80
2022/08/12 02:37:57;;;;;;;6.03;3.15;;;20.40;99.90;;;;;;5017288;28;20749;-80
2022/08/12 02:40:52;;;;;;;11.13;3.03;;;20.40;99.90;;;;;;5023497;28;20249;-81
2022/08/12 02:43:46;;;;;;;7.28;2.88;;;20.50;99.90;;;;;;5020495;28;20222;-79
2022/08/12 02:46:36;;;;;;;7.47;2.90;;;20.50;99.90;;;;;;5013219;28;20217;-79
2022/08/12 02:49:31;;;;;;;7.63;2.63;;;20.50;99.90;;;;;;5030638;28;20220;-78
2022/08/12 02:52:22;;;;;;;3.90;2.70;;;20.40;99.90;;;;;;5041593;28;20221;-79
2022/08/12 02:55:17;;;;;;;3.65;2.85;;;20.40;99.90;;;;;;5053855;28;20234;-79
2022/08/12 02:58:22;;;;;;;4.25;2.67;;;20.40;99.90;;;;;;5040919;28;20218;-79
2022/08/12 03:01:27;;;;;;;4.38;2.92;;;20.40;99.90;;;;;;5053011;28;20700;-78
2022/08/12 03:04:25;;;;;;;5.85;2.70;;;20.50;99.90;;;;;;5040731;28;20217;-80
2022/08/12 03:07:20;;;;;;;4.10;2.85;;;20.40;99.90;;;;;;5040983;28;20749;-78
2022/08/12 03:10:12;;;;;;;3.80;2.95;;;20.40;99.90;;;;;;5040323;28;20324;-79
2022/08/12 03:13:07;;;;;;;4.88;2.70;;;20.40;99.90;;;;;;5040659;28;20247;-77
2022/08/12 03:15:55;;;;;;;5.65;3.00;;;20.40;99.90;;;;;;5049711;28;20221;-77
2022/08/12 03:18:45;;;;;;;5.03;2.80;;;20.30;99.90;;;;;;5039940;28;20733;-76
2022/08/12 03:21:36;;;;;;;8.13;2.85;;;20.40;99.90;;;;;;5042158;28;20792;-77
2022/08/12 03:24:45;;;;;;;6.97;2.92;;;20.40;99.90;;;;;;5053480;28;20221;-77
2022/08/12 03:27:39;;;;;;;5.00;3.05;;;20.30;99.90;;;;;;5039371;28;20259;-77
2022/08/12 03:30:31;;;;;;;6.72;2.60;;;20.30;99.90;;;;;;5036948;28;20303;-78
2022/08/12 03:33:21;;;;;;;5.35;2.60;;;20.30;99.90;;;;;;5037415;28;20217;-79
2022/08/12 03:36:11;;;;;;;3.53;2.70;;;20.40;99.90;;;;;;5035401;28;20773;-79
2022/08/12 03:42:31;;;;;;;5.15;2.83;;;20.40;99.90;;;;;;5052581;28;20225;-78
2022/08/12 04:01:10;;;;;;;5.20;3.20;;;19.90;99.90;;;;;;5058733;28;20243;-78
2022/08/12 04:04:00;;;;;;;7.38;2.97;;;19.90;99.90;;;;;;5049338;28;20221;-75
2022/08/12 04:06:49;;;;;;;5.63;3.10;;;20.00;99.90;;;;;;5061396;28;20593;-76
2022/08/12 04:09:41;;;;;;;6.10;2.80;;;20.00;99.90;;;;;;5063888;28;20223;-78
2022/08/12 04:15:36;;;;;;;3.28;2.80;;;20.00;99.90;;;;;;5047962;28;20228;-78
2022/08/12 04:18:26;;;;;;;3.67;2.70;;;19.90;99.90;;;;;;5047169;28;20231;-79
2022/08/12 04:21:16;;;;;;;8.70;3.00;;;19.90;99.90;;;;;;5062026;28;20226;-78
2022/08/12 04:24:05;;;;;;;5.07;2.90;;;20.00;99.90;;;;;;5046215;28;20847;-79
2022/08/12 04:26:54;;;;;;;4.05;3.25;;;20.00;99.90;;;;;;5044044;28;20902;-79
2022/08/12 04:29:43;;;;;;;3.50;2.90;;;19.90;99.90;;;;;;5062352;28;20702;-79
2022/08/12 04:32:52;;;;;;;5.90;3.22;;;19.90;99.90;;;;;;5057309;28;20244;-79
2022/08/12 04:35:42;;;;;;;5.22;3.30;;;19.90;99.90;;;;;;5047934;28;20220;-80
2022/08/12 04:38:33;;;;;;;8.10;2.90;;;19.90;99.90;;;;;;5047178;28;20234;-79
2022/08/12 04:41:24;;;;;;;5.05;3.20;;;20.00;99.90;;;;;;5044889;28;20215;-78
2022/08/12 04:44:13;;;;;;;5.85;3.38;;;20.00;99.90;;;;;;5049861;28;20301;-80
2022/08/12 04:47:01;;;;;;;5.90;3.10;;;20.10;99.90;;;;;;5059333;28;20221;-79
2022/08/12 04:49:50;;;;;;;5.35;3.20;;;20.10;99.90;;;;;;5044556;28;20339;-82
2022/08/12 04:52:40;;;;;;;6.05;3.10;;;20.10;99.90;;;;;;5060473;28;20225;-80
2022/08/12 04:55:29;;;;;;;5.70;3.30;;;20.10;99.90;;;;;;5065610;28;20229;-80
2022/08/12 04:58:18;;;;;;;6.00;3.30;;;20.00;99.90;;;;;;5065644;28;20817;-81
2022/08/12 05:01:19;;;;;;;3.90;2.95;;;20.10;99.90;;;;;;5055593;28;20224;-81
2022/08/12 05:04:09;;;;;;;5.85;3.25;;;20.20;99.90;;;;;;5050844;28;20220;-77
2022/08/12 05:06:58;;;;;;;8.55;3.30;;;20.20;99.90;;;;;;5048987;28;20232;-77
2022/08/12 05:09:48;;;;;;;5.05;3.00;;;20.20;99.90;;;;;;5044217;28;20606;-76
2022/08/12 05:12:54;;;;;;;3.88;3.20;;;20.30;99.90;;;;;;5059593;28;20262;-77
2022/08/12 05:15:45;;;;;;;7.55;3.30;;;20.30;99.90;;;;;;5062003;28;20231;-76
2022/08/12 05:18:51;;;;;;;7.22;3.20;;;20.40;99.90;;;;;;5058612;28;20229;-76
2022/08/12 05:21:40;;;;;;;5.10;3.40;;;20.40;99.90;;;;;;5045748;28;20221;-77
2022/08/12 05:24:29;;;;;;;4.53;3.45;;;20.40;99.90;;;;;;5045556;28;20228;-77
2022/08/12 05:27:21;;;;;;;4.68;3.05;;;20.40;99.90;;;;;;5059328;28;20228;-77
2022/08/12 05:30:12;;;;;;;6.60;3.22;;;20.60;99.90;;;;;;5044463;28;20307;-78
2022/08/12 05:33:15;;;;;;;12.93;3.42;;;20.70;99.90;;;;;;5060752;28;20235;-78
2022/08/12 05:36:07;;;;;;;5.50;3.00;;;21.00;99.90;;;;;;5061504;28;20234;-77
2022/08/12 05:38:59;;;;;;;6.13;3.38;;;21.00;99.90;;;;;;5060366;28;20225;-75
2022/08/12 05:41:48;;;;;;;10.18;3.67;;;21.10;99.90;;;;;;5058852;28;20582;-76
2022/08/12 05:44:38;;;;;;;8.43;3.65;;;21.20;99.90;;;;;;5046625;28;20601;-78
2022/08/12 05:47:30;;;;;;;7.60;3.90;;;21.30;99.90;;;;;;5062235;28;20220;-78
2022/08/12 05:50:39;;;;;;;7.10;3.60;;;21.40;99.90;;;;;;5043828;28;20220;-76
2022/08/12 05:53:28;;;;;;;8.88;3.50;;;21.50;99.90;;;;;;5043335;28;20220;-79
2022/08/12 05:56:22;;;;;;;6.00;3.80;;;21.70;99.90;;;;;;5062015;28;20249;-78
2022/08/12 05:59:12;;;;;;;8.18;3.40;;;21.80;99.90;;;;;;5063554;28;20231;-79
2022/08/12 06:02:06;;;;;;;7.15;3.60;;;21.50;99.90;;;;;;5060118;28;20282;-78
2022/08/12 06:05:01;;;;;;;10.00;3.60;;;21.60;99.90;;;;;;5059194;28;20220;-77
2022/08/12 06:07:53;;;;;;;9.40;3.55;;;21.80;99.90;;;;;;5059939;28;20251;-79
2022/08/12 06:10:49;;;;;;;4.68;3.40;;;22.20;99.90;;;;;;5059302;28;20239;-80
2022/08/12 06:13:40;;;;;;;4.47;3.72;;;22.10;99.90;;;;;;5060157;28;20252;-79
2022/08/12 06:16:43;;;;;;;7.18;3.60;;;21.70;99.90;;;;;;5060197;28;20207;-79
2022/08/12 06:19:34;;;;;;;6.43;3.40;;;22.10;99.90;;;;;;5058602;28;20323;-78
2022/08/12 06:22:44;;;;;;;5.43;3.70;;;22.00;99.90;;;;;;5061328;28;20235;-84
2022/08/12 06:25:33;;;;;;;8.30;3.58;;;21.90;99.90;;;;;;5058479;28;20227;-81
2022/08/12 06:28:22;;;;;;;5.25;3.63;;;22.10;99.90;;;;;;5059318;28;20251;-80
2022/08/12 06:31:15;;;;;;;5.85;3.45;;;22.20;99.90;;;;;;5046406;28;20311;-79
2022/08/12 06:34:19;;;;;;;7.68;3.50;;;22.50;99.90;;;;;;5060697;28;20220;-80
2022/08/12 06:37:29;;;;;;;4.35;3.20;;;22.60;99.90;;;;;;5045483;28;20299;-79
2022/08/12 06:42:46;;;;;;;9.20;3.85;;;22.90;99.90;;;;;;5057769;28;20224;-78
2022/08/12 06:43:27;;;;;;;5.82;3.30;;;24.20;99.90;;;;;;5041855;28;20224;-79
2022/08/12 06:46:37;;;;;;;6.93;3.60;;;24.60;99.90;;;;;;5044561;28;20228;-79
2022/08/12 06:49:27;;;;;;;5.43;3.60;;;23.60;99.90;;;;;;5038939;28;20317;-79
2022/08/12 06:52:16;;;;;;;6.30;3.67;;;23.20;99.90;;;;;;5056060;28;20302;-78
2022/08/12 06:55:07;;;;;;;9.35;3.35;;;23.10;99.90;;;;;;5060801;28;20228;-78
2022/08/12 06:58:00;;;;;;;4.03;3.53;;;23.20;99.90;;;;;;5058620;28;20228;-78
2022/08/12 07:00:57;;;;;;;4.50;3.60;;;23.20;99.90;;;;;;5042321;28;20244;-78
2022/08/12 07:03:47;;;;;;;5.40;3.67;;;23.10;99.90;;;;;;5061330;28;20220;-80
2022/08/12 07:06:35;;;;;;;5.53;3.58;;;23.20;99.90;;;;;;5056793;28;20301;-80
2022/08/12 07:09:24;;;;;;;4.95;3.35;;;23.40;99.90;;;;;;5045004;28;20778;-80
2022/08/12 07:12:35;;;;;;;4.68;3.47;;;23.50;99.90;;;;;;5059085;28;20234;-79
2022/08/12 07:15:25;;;;;;;7.60;3.63;;;23.70;99.90;;;;;;5057800;28;20217;-80
2022/08/12 07:18:18;;;;;;;4.68;3.50;;;23.80;99.90;;;;;;5048559;28;20298;-80
2022/08/12 07:21:08;;;;;;;7.18;3.53;;;24.00;99.90;;;;;;5056033;28;20224;-79
2022/08/12 07:23:56;;;;;;;4.72;3.55;;;23.90;99.90;;;;;;5043576;28;20257;-80
2022/08/12 07:26:45;;;;;;;4.78;4.00;;;23.90;99.90;;;;;;5062028;28;20680;-79
2022/08/12 07:29:35;;;;;;;5.47;3.58;;;24.20;99.90;;;;;;5062395;28;20216;-79
2022/08/12 07:32:46;;;;;;;5.40;3.42;;;24.40;99.90;;;;;;5045928;28;20596;-79
2022/08/12 07:35:44;;;;;;;5.28;3.50;;;24.70;99.90;;;;;;5044481;28;20226;-79
2022/08/12 07:38:35;;;;;;;4.00;3.28;;;24.90;99.90;;;;;;5056571;28;20290;-79
2022/08/12 07:41:26;;;;;;;6.75;3.22;;;25.00;99.90;;;;;;5045340;28;20311;-81
2022/08/12 07:44:17;;;;;;;4.50;3.60;;;25.20;99.90;;;;;;5056804;28;20221;-79
2022/08/12 07:47:07;;;;;;;3.53;3.05;;;25.50;99.90;;;;;;5044697;28;20220;-80
2022/08/12 07:50:00;;;;;;;4.10;3.00;;;25.50;99.90;;;;;;5040929;28;20231;-80
2022/08/12 07:52:53;;;;;;;4.00;3.60;;;25.80;99.90;;;;;;5056063;28;20216;-80
2022/08/12 07:55:42;;;;;;;4.70;3.30;;;25.50;99.90;;;;;;5045841;28;20223;-80
2022/08/12 07:58:31;;;;;;;3.72;3.03;;;25.50;99.90;;;;;;5058412;28;20754;-81
2022/08/12 08:01:24;;;;;;;3.70;2.80;;;25.40;99.90;;;;;;5058643;28;20219;-78
2022/08/12 08:07:21;;;;;;;5.40;2.67;;;24.70;99.90;;;;;;5058489;28;20393;-78
2022/08/12 08:10:10;;;;;;;4.43;3.05;;;24.80;99.90;;;;;;5057118;28;20790;-79
2022/08/12 08:13:03;;;;;;;3.00;2.80;;;24.80;99.90;;;;;;5059008;28;20234;-78
2022/08/12 08:15:52;;;;;;;3.17;2.50;;;24.90;99.90;;;;;;5056970;28;20740;-77
2022/08/12 08:18:52;;;;;;;3.30;2.63;;;25.10;99.90;;;;;;5054490;28;20228;-78
2022/08/12 08:21:42;;;;;;;2.70;2.50;;;25.10;99.90;;;;;;5025775;28;20220;-78
2022/08/12 08:24:32;;;;;;;6.03;2.97;;;25.30;99.90;;;;;;5032379;28;20225;-79
2022/08/12 08:27:21;;;;;;;5.72;3.03;;;25.30;99.90;;;;;;5056106;28;20224;-78
2022/08/12 08:30:12;;;;;;;4.13;2.50;;;25.40;99.90;;;;;;5055111;28;20312;-78
2022/08/12 08:33:01;;;;;;;4.60;2.90;;;25.50;99.90;;;;;;5052925;28;20255;-76
2022/08/12 08:36:09;;;;;;;3.90;3.00;;;25.60;99.90;;;;;;5050474;28;20216;-82
2022/08/12 08:39:15;;;;;;;6.18;3.10;;;25.60;99.90;;;;;;5039241;28;20624;-77
2022/08/12 08:45:12;;;;;;;5.82;3.53;;;25.10;99.90;;;;;;5041953;28;20220;-79
2022/08/12 08:48:01;;;;;;;4.82;3.00;;;25.00;99.90;;;;;;5053835;28;20231;-78
2022/08/12 08:50:50;;;;;;;8.30;4.10;;;25.60;99.90;;;;;;5058315;28;20235;-78
2022/08/12 08:53:53;;;;;;;7.25;3.50;;;25.70;99.90;;;;;;5057450;28;20211;-78
2022/08/12 08:56:45;;;;;;;15.70;4.18;;;26.10;99.90;;;;;;5059710;28;20243;-77
2022/08/12 08:59:34;;;;;;;8.48;3.30;;;26.50;99.90;;;;;;5043353;28;20224;-78
2022/08/12 09:02:23;;;;;;;4.60;3.25;;;26.50;99.90;;;;;;5058328;28;21091;-77
2022/08/12 09:05:12;;;;;;;3.20;2.80;;;26.10;99.90;;;;;;5061909;28;20307;-76
2022/08/12 09:08:13;;;;;;;3.58;3.05;;;26.70;99.90;;;;;;5041503;28;20217;-79
2022/08/12 09:14:42;;;;;;;4.15;3.58;;;26.80;99.90;;;;;;5062359;28;20208;-81
2022/08/12 09:17:38;;;;;;;5.07;3.28;;;28.10;99.90;;;;;;5053803;28;21959;-81
2022/08/12 09:20:32;;;;;;;8.20;4.10;;;27.90;99.90;;;;;;5058868;28;20228;-80
2022/08/12 09:23:21;;;;;;;4.72;3.72;;;27.30;99.90;;;;;;5043749;28;20230;-77
2022/08/12 09:26:32;;;;;;;4.80;3.80;;;27.60;99.90;;;;;;5059361;28;20220;-78
2022/08/12 09:29:33;;;;;;;6.90;4.10;;;26.90;99.90;;;;;;5062411;28;20320;-80
2022/08/12 09:32:49;;;;;;;4.93;4.10;;;27.20;99.90;;;;;;5054334;28;20224;-80
2022/08/12 09:35:58;;;;;;;5.63;3.83;;;26.70;99.90;;;;;;5027563;28;20232;-80
2022/08/12 09:38:52;;;;;;;4.38;3.63;;;26.90;99.90;;;;;;5056273;28;21267;-79
2022/08/12 09:45:19;;;;;;;4.10;3.78;;;26.40;99.90;;;;;;5060430;28;20289;-77
2022/08/12 09:45:21;;;;;;;5.30;4.00;;;26.20;99.90;;;;;;5039484;28;20286;-77
2022/08/12 09:48:32;;;;;;;4.60;3.42;;;25.70;99.90;;;;;;5047595;28;20228;-79
2022/08/12 09:51:23;;;;;;;3.78;3.47;;;25.30;99.90;;;;;;5056806;28;20724;-78
2022/08/12 09:54:26;;;;;;;7.97;3.63;;;25.30;99.90;;;;;;5066012;28;20572;-77
2022/08/12 09:57:23;;;;;;;4.43;3.80;;;25.20;99.90;;;;;;5041555;28;21047;-79
2022/08/12 10:00:33;;;;;;;6.20;4.00;;;25.20;99.90;;;;;;5054647;28;20223;-78
2022/08/12 10:03:42;;;;;;;4.50;4.10;;;24.90;99.90;;;;;;5058607;28;20254;-79
2022/08/12 10:06:51;;;;;;;4.22;3.83;;;24.80;99.90;;;;;;5038882;28;20609;-79
2022/08/12 10:09:43;;;;;;;10.50;4.68;;;24.80;99.90;;;;;;5037614;28;20220;-78
2022/08/12 10:15:59;;;;;;;7.43;4.47;;;24.90;99.90;;;;;;5058108;28;20228;-78
2022/08/12 10:18:58;;;;;;;5.95;3.92;;;25.70;99.90;;;;;;5058019;28;20315;-78
2022/08/12 10:21:47;;;;;;;5.50;3.88;;;25.80;99.90;;;;;;5043210;28;20327;-79
2022/08/12 10:29:35;;;;;;;6.03;4.03;;;26.00;99.90;;;;;;5060560;28;20223;-79
2022/08/12 10:31:13;;;;;;;4.72;3.85;;;25.70;99.90;;;;;;5054931;28;20232;-78
2022/08/12 10:34:05;;;;;;;5.50;4.07;;;26.80;99.90;;;;;;5044349;28;20318;-78
2022/08/12 10:37:11;;;;;;;4.90;4.32;;;27.10;99.90;;;;;;5041022;28;20216;-78
2022/08/12 10:40:21;;;;;;;9.23;4.43;;;28.80;99.90;;;;;;5053885;28;20315;-79
2022/08/12 10:46:44;;;;;;;7.88;4.50;;;29.80;99.90;;;;;;5054600;28;20224;-77
2022/08/12 10:49:39;;;;;;;7.30;4.30;;;29.70;99.90;;;;;;5040615;28;20311;-80
2022/08/12 10:52:47;;;;;;;8.38;5.28;;;29.00;99.90;;;;;;5062657;28;20238;-80
2022/08/12 10:55:40;;;;;;;7.05;5.20;;;28.80;99.90;;;;;;5060676;28;20627;-78
2022/08/12 10:58:33;;;;;;;5.72;5.18;;;27.70;99.90;;;;;;5046708;28;20709;-79
2022/08/12 11:01:27;;;;;;;5.40;4.90;;;27.40;99.90;;;;;;5057228;28;20224;-80
2022/08/12 11:04:38;;;;;;;6.97;5.18;;;27.20;99.90;;;;;;5043110;28;20211;-80
2022/08/12 11:07:40;;;;;;;6.40;5.75;;;27.10;99.90;;;;;;5057158;28;20592;-80
2022/08/12 11:10:50;;;;;;;6.45;5.00;;;27.30;99.90;;;;;;5060410;28;20697;-80
2022/08/12 11:13:38;;;;;;;7.55;5.32;;;27.10;99.90;;;;;;5059774;28;20556;-79
2022/08/12 11:16:37;;;;;;;7.80;5.72;;;27.30;99.90;;;;;;5060168;28;20224;-80
2022/08/12 11:19:26;;;;;;;6.18;5.38;;;27.60;99.90;;;;;;5059587;28;20220;-80
2022/08/12 11:22:17;;;;;;;6.72;5.20;;;27.90;99.90;;;;;;5061345;28;20249;-80
2022/08/12 11:25:13;;;;;;;10.25;5.28;;;27.70;99.90;;;;;;5059420;28;20268;-81
2022/08/12 11:28:02;;;;;;;6.40;5.10;;;27.70;99.90;;;;;;5062894;28;20227;-85
2022/08/12 11:30:53;;;;;;;9.80;5.55;;;27.40;99.90;;;;;;5056755;28;20692;-79
2022/08/12 11:33:43;;;;;;;7.32;5.90;;;27.10;99.90;;;;;;5044815;28;20231;-80
2022/08/12 11:36:53;;;;;;;6.07;5.55;;;27.00;99.90;;;;;;5044213;28;20224;-80
2022/08/12 11:39:41;;;;;;;8.38;5.43;;;26.80;99.90;;;;;;5059274;28;20218;-80
2022/08/12 11:42:51;;;;;;;9.35;5.38;;;26.90;99.90;;;;;;5056594;28;20271;-80
2022/08/12 11:45:40;;;;;;;9.23;6.28;;;27.00;99.90;;;;;;5057485;28;20227;-79
2022/08/12 11:48:38;;;;;;;8.18;6.28;;;26.80;99.90;;;;;;5045849;28;20322;-80
2022/08/12 11:51:39;;;;;;;6.00;5.50;;;26.60;99.90;;;;;;5044257;28;20304;-80
2022/08/12 11:54:29;;;;;;;6.35;5.72;;;26.60;99.90;;;;;;5061961;28;20216;-80
2022/08/12 11:57:18;;;;;;;8.35;5.93;;;26.70;99.90;;;;;;5060209;28;20232;-79
2022/08/12 12:00:28;;;;;;;6.63;5.97;;;26.70;99.90;;;;;;5059835;28;20707;-79
2022/08/12 12:03:37;;;;;;;6.15;5.65;;;26.90;99.90;;;;;;5046319;28;20220;-80
2022/08/12 12:06:34;;;;;;;10.98;6.70;;;26.90;99.90;;;;;;5054920;28;20408;-80
2022/08/12 12:09:24;;;;;;;6.45;5.80;;;27.00;99.90;;;;;;5054565;28;20232;-79
2022/08/12 12:12:12;;;;;;;8.40;6.40;;;27.00;99.90;;;;;;5047550;28;20242;-79
2022/08/12 12:15:02;;;;;;;10.43;6.45;;;26.90;99.90;;;;;;5056241;28;21633;-81
2022/08/12 12:17:58;;;;;;;7.15;6.25;;;26.80;99.90;;;;;;5055390;28;20381;-79
2022/08/12 12:20:46;;;;;;;8.77;6.53;;;26.60;99.90;;;;;;5056768;28;20217;-79
2022/08/12 12:23:36;;;;;;;10.18;6.93;;;26.20;99.90;;;;;;5045534;28;20746;-79
2022/08/12 12:26:24;;;;;;;7.25;6.55;;;26.20;99.90;;;;;;5051263;28;20228;-79
2022/08/12 12:29:24;;;;;;;7.63;6.47;;;26.10;99.90;;;;;;5047558;28;20208;-79
2022/08/12 12:32:33;;;;;;;6.80;6.18;;;26.20;99.90;;;;;;5061121;28;20783;-78
2022/08/12 12:35:23;;;;;;;6.68;6.07;;;26.40;99.90;;;;;;5065035;28;20224;-79
2022/08/12 12:38:32;;;;;;;7.85;7.05;;;26.40;99.90;;;;;;5041055;28;20216;-78
2022/08/12 12:41:21;;;;;;;11.40;7.38;;;26.90;99.90;;;;;;5061020;28;20717;-79
2022/08/12 12:44:30;;;;;;;7.95;6.00;;;27.00;99.90;;;;;;5061421;28;20249;-79
2022/08/12 12:47:51;;;;;;;10.73;6.63;;;27.00;99.90;;;;;;5062881;28;20243;-78
2022/08/12 12:50:45;;;;;;;7.78;6.18;;;27.30;99.90;;;;;;5058092;28;20220;-80
2022/08/12 12:53:40;;;;;;;8.85;6.43;;;27.30;99.90;;;;;;5060405;28;20311;-79
2022/08/12 12:56:51;;;;;;;12.32;7.00;;;27.30;99.90;;;;;;5045410;28;20216;-79
2022/08/12 13:00:13;;;;;;;8.98;7.10;;;27.10;99.90;;;;;;5059157;28;20257;-78
2022/08/12 13:02:54;;;;;;;7.50;6.80;;;27.20;99.90;;;;;;5069003;28;20566;-80
2022/08/12 13:05:44;;;;;;;8.57;6.38;;;27.40;99.90;;;;;;5058930;28;20228;-81
2022/08/12 13:08:42;;;;;;;7.68;6.75;;;27.50;99.90;;;;;;5062985;28;20227;-80
2022/08/12 13:11:34;;;;;;;7.07;6.07;;;27.40;99.90;;;;;;5065237;28;20236;-78
2022/08/12 13:14:32;;;;;;;7.85;6.97;;;27.50;99.90;;;;;;5060011;28;20747;-79
2022/08/12 13:17:30;;;;;;;8.77;6.78;;;27.70;99.90;;;;;;5059561;28;20288;-79
2022/08/12 13:20:39;;;;;;;8.20;6.70;;;27.80;99.90;;;;;;5061506;28;20228;-79
2022/08/12 13:23:33;;;;;;;8.73;6.57;;;27.70;99.90;;;;;;5058353;28;21086;-78
2022/08/12 13:26:33;;;;;;;9.38;6.97;;;27.50;99.90;;;;;;5055619;28;20251;-79
2022/08/12 13:29:28;;;;;;;11.68;6.60;;;27.70;99.90;;;;;;5041162;28;20227;-79
2022/08/12 13:32:17;;;;;;;8.45;6.50;;;27.60;99.90;;;;;;5056871;28;20739;-78
2022/08/12 13:35:18;;;;;;;10.95;7.32;;;27.30;99.90;;;;;;5044630;28;20211;-79
2022/08/12 13:38:37;;;;;;;8.07;6.57;;;27.10;99.90;;;;;;5059453;28;20268;-79
2022/08/12 13:41:35;;;;;;;9.07;7.03;;;26.90;99.90;;;;;;5060102;28;22505;-79
2022/08/12 13:44:25;;;;;;;8.20;7.50;;;26.70;99.90;;;;;;5060315;28;20212;-79
2022/08/12 13:47:14;;;;;;;8.48;7.57;;;26.70;99.90;;;;;;5051212;28;20228;-79
2022/08/12 13:50:09;;;;;;;8.27;7.20;;;26.50;99.90;;;;;;5048142;28;20533;-77
2022/08/12 13:52:58;;;;;;;11.55;6.80;;;26.50;99.90;;;;;;5065126;28;20362;-76
2022/08/12 13:55:55;;;;;;;8.23;7.07;;;26.60;99.90;;;;;;5061120;28;20234;-78
2022/08/12 13:58:49;;;;;;;8.05;7.25;;;26.60;99.90;;;;;;5042651;28;20223;-79
2022/08/12 14:01:40;;;;;;;10.25;7.10;;;26.60;99.90;;;;;;5043322;28;20232;-78
2022/08/12 14:04:29;;;;;;;15.25;7.38;;;26.60;99.90;;;;;;5060395;28;20273;-79
2022/08/12 14:07:17;;;;;;;8.68;7.75;;;26.70;99.90;;;;;;5060212;28;20335;-83
2022/08/12 14:13:20;;;;;;;8.93;8.02;;;26.60;99.90;;;;;;5062654;28;20278;-77
2022/08/12 14:16:30;;;;;;;9.02;7.60;;;26.70;99.90;;;;;;5044848;28;20208;-80
2022/08/12 14:20:11;;;;;;;9.77;7.30;;;26.80;99.90;;;;;;5055447;28;20228;-80
2022/08/12 14:22:50;;;;;;;10.38;6.72;;;26.80;99.90;;;;;;5046670;28;20232;-77
2022/08/12 14:25:42;;;;;;;7.80;7.10;;;26.70;99.90;;;;;;5061072;28;20246;-78
2022/08/12 14:28:34;;;;;;;11.30;7.60;;;26.80;99.90;;;;;;5055143;28;20222;-78
2022/08/12 14:31:23;;;;;;;8.82;7.53;;;26.70;99.90;;;;;;5057351;28;20224;-79
2022/08/12 14:34:20;;;;;;;8.50;7.70;;;26.70;99.90;;;;;;5059655;28;20223;-78
2022/08/12 14:37:15;;;;;;;9.05;7.60;;;26.70;99.90;;;;;;5047416;28;20711;-78
2022/08/12 14:40:24;;;;;;;8.30;7.30;;;26.80;99.90;;;;;;5046752;28;20342;-79
2022/08/12 14:43:15;;;;;;;11.77;7.38;;;26.80;99.90;;;;;;5061777;28;20229;-78
2022/08/12 14:46:11;;;;;;;8.38;7.53;;;26.70;99.90;;;;;;5060703;28;20234;-79
2022/08/12 14:49:00;;;;;;;9.07;7.25;;;26.80;99.90;;;;;;5046882;28;20295;-82
2022/08/12 14:52:08;;;;;;;9.88;8.15;;;26.60;99.90;;;;;;5057127;28;20220;-79
2022/08/12 14:55:17;;;;;;;12.48;8.32;;;26.80;99.90;;;;;;5048199;28;20220;-78
2022/08/12 14:58:26;;;;;;;12.60;8.27;;;26.70;99.90;;;;;;5054240;28;20318;-80
2022/08/12 15:01:39;;;;;;;9.40;8.18;;;26.60;99.90;;;;;;5056286;28;20216;-79
2022/08/12 15:04:28;;;;;;;9.23;7.88;;;26.70;99.90;;;;;;5045076;28;20235;-79
2022/08/12 15:07:17;;;;;;;8.70;7.90;;;26.60;99.90;;;;;;5062756;28;20354;-79
2022/08/12 15:10:25;;;;;;;8.65;7.90;;;26.70;99.90;;;;;;5059821;28;20309;-80
2022/08/12 15:13:21;;;;;;;9.07;8.18;;;26.80;99.90;;;;;;5047424;28;20346;-80
2022/08/12 15:16:11;;;;;;;11.13;8.32;;;26.80;99.90;;;;;;5057914;28;20719;-79
2022/08/12 15:19:01;;;;;;;8.23;7.55;;;26.80;99.90;;;;;;5061138;28;20220;-79
2022/08/12 15:22:09;;;;;;;9.07;6.95;;;26.80;99.90;;;;;;5042136;28;20433;-78
2022/08/12 15:25:18;;;;;;;13.80;8.85;;;26.80;99.90;;;;;;5060153;28;20220;-78
2022/08/12 15:28:08;;;;;;;8.50;7.60;;;26.70;99.90;;;;;;5057498;28;20224;-78
2022/08/12 15:31:12;;;;;;;8.10;7.28;;;26.70;99.90;;;;;;5047472;28;20232;-79
2022/08/12 15:34:16;;;;;;;9.07;7.80;;;26.60;99.90;;;;;;5044838;28;20220;-80
2022/08/12 15:37:06;;;;;;;10.38;7.93;;;26.60;99.90;;;;;;5041443;28;20232;-79
2022/08/12 15:39:56;;;;;;;14.38;8.45;;;26.50;99.90;;;;;;5044725;28;20789;-79
2022/08/12 15:42:48;;;;;;;10.13;8.02;;;26.50;99.90;;;;;;5039267;28;20715;-81
2022/08/12 15:45:40;;;;;;;11.60;8.20;;;26.40;99.90;;;;;;5055486;28;21663;-79
2022/08/12 15:48:35;;;;;;;8.95;8.02;;;26.20;99.90;;;;;;5060371;28;20766;-80
2022/08/12 15:51:32;;;;;;;11.23;8.05;;;26.10;99.90;;;;;;5056107;28;20216;-80
2022/08/12 15:54:41;;;;;;;9.15;8.23;;;26.10;99.90;;;;;;5056326;28;20263;-80
2022/08/12 15:57:33;;;;;;;10.68;8.73;;;26.00;99.90;;;;;;5060138;28;20494;-79
2022/08/12 16:00:24;;;;;;;11.10;8.63;;;25.90;99.90;;;;;;5059012;28;20589;-79
2022/08/12 16:03:27;;;;;;;10.45;8.88;;;25.70;99.90;;;;;;5048826;28;20245;-80
2022/08/12 16:06:37;;;;;;;10.38;8.68;;;25.00;99.90;;;;;;5062904;28;20216;-79
2022/08/12 16:09:45;;;;;;;9.77;8.80;;;24.80;99.90;;;;;;5049806;28;20220;-78
2022/08/12 16:12:55;;;;;;;11.27;8.70;;;24.60;99.90;;;;;;5060174;28;20235;-80
2022/08/12 16:15:45;;;;;;;14.40;9.55;;;24.50;99.90;;;;;;5060844;28;20285;-80
2022/08/12 16:18:50;;;;;;;18.75;11.30;;;24.20;99.90;;;;;;5045085;28;20709;-80
2022/08/12 16:21:42;;;;;;;11.25;9.60;;;24.00;99.90;;;;;;5063823;28;20362;-80
2022/08/12 16:24:45;;;;;;;14.90;9.68;;;23.80;99.90;;;;;;5047072;28;20816;-79
2022/08/12 16:27:41;;;;;;;11.00;9.30;;;23.60;99.90;;;;;;5049446;28;20227;-79
2022/08/12 16:30:33;;;;;;;10.32;9.20;;;23.60;99.90;;;;;;5045887;28;20224;-80
2022/08/12 16:33:34;;;;;;;14.77;9.98;;;23.50;99.90;;;;;;5053153;28;20293;-79
2022/08/12 16:36:44;;;;;;;12.68;9.57;;;23.60;99.90;;;;;;5049972;28;20317;-80
2022/08/12 16:39:34;;;;;;;12.25;9.48;;;23.70;99.90;;;;;;5059562;28;20232;-79
2022/08/12 16:42:44;;;;;;;10.32;8.52;;;23.60;99.90;;;;;;5044508;28;20346;-80
2022/08/12 16:45:49;;;;;;;10.15;8.32;;;23.40;99.90;;;;;;5047634;28;20223;-79
2022/08/12 16:48:57;;;;;;;10.25;8.23;;;23.30;99.90;;;;;;5067881;28;20232;-80
2022/08/12 16:51:53;;;;;;;10.70;8.70;;;23.20;99.90;;;;;;5045354;28;20242;-80
2022/08/12 16:54:43;;;;;;;10.50;8.82;;;23.00;99.90;;;;;;5043791;28;20228;-81
2022/08/12 16:57:31;;;;;;;11.07;8.98;;;23.00;99.90;;;;;;5059379;28;20236;-80
2022/08/12 17:00:23;;;;;;;11.32;9.63;;;23.00;99.90;;;;;;5048209;28;21983;-80